Time;durP1;ratioP1;P1;durP2;ratioP2;P2;SDS_P1;SDS_P2;PMS_P1;PMS_P2;Temp;Humidity;BMP_temperature;BMP_pressure;BME280_temperature;BME280_humidity;BME280_pressure;Samples;Min_cycle;Max_cycle;Signal;HPM_P1;HPM_P2
2022/10/06 00:00:36;;;;;;;6.93;1.40;;;13.90;99.90;;;;;;4978339;28;20070;-69
2022/10/06 00:03:02;;;;;;;8.00;1.15;;;13.90;99.90;;;;;;4978222;28;20061;-69
2022/10/06 00:05:28;;;;;;;5.57;1.10;;;13.90;99.90;;;;;;4978291;28;20050;-69
2022/10/06 00:07:54;;;;;;;6.95;1.35;;;13.90;99.90;;;;;;4978089;28;20042;-69
2022/10/06 00:10:20;;;;;;;5.95;0.88;;;13.80;99.90;;;;;;4978439;28;20042;-69
2022/10/06 00:12:49;;;;;;;5.40;0.77;;;13.80;99.90;;;;;;4995507;28;20605;-69
2022/10/06 00:15:18;;;;;;;4.82;1.20;;;13.80;99.90;;;;;;4961859;28;20046;-69
2022/10/06 00:17:44;;;;;;;8.88;1.20;;;13.80;99.90;;;;;;4977737;28;20065;-69
2022/10/06 00:20:10;;;;;;;8.80;1.30;;;13.70;99.90;;;;;;4995599;28;20054;-69
2022/10/06 00:22:45;;;;;;;6.43;1.10;;;13.70;99.90;;;;;;4977588;28;20097;-69
2022/10/06 00:25:12;;;;;;;6.35;1.00;;;13.70;99.90;;;;;;4977729;28;20136;-69
2022/10/06 00:27:41;;;;;;;7.75;1.63;;;13.60;99.90;;;;;;4977700;28;20419;-69
2022/10/06 00:30:10;;;;;;;10.77;1.60;;;13.60;99.90;;;;;;4977703;28;20046;-69
2022/10/06 00:32:36;;;;;;;6.78;1.10;;;13.60;99.90;;;;;;4977591;28;20050;-69
2022/10/06 00:35:03;;;;;;;8.80;1.60;;;13.60;99.90;;;;;;4977644;28;20042;-69
2022/10/06 00:37:34;;;;;;;4.40;0.93;;;13.50;99.90;;;;;;4977766;28;20061;-69
2022/10/06 00:40:00;;;;;;;8.70;1.42;;;13.50;99.90;;;;;;4977493;28;20088;-69
2022/10/06 00:42:27;;;;;;;7.25;1.30;;;13.50;99.90;;;;;;4977468;28;20455;-69
2022/10/06 00:44:54;;;;;;;9.43;1.83;;;13.50;99.90;;;;;;4977369;28;20038;-69
2022/10/06 00:47:23;;;;;;;6.90;1.30;;;13.50;99.90;;;;;;4977285;28;20490;-69
2022/10/06 00:49:49;;;;;;;6.90;1.10;;;13.50;99.90;;;;;;4977345;28;20045;-69
2022/10/06 00:52:23;;;;;;;9.18;1.80;;;13.50;99.90;;;;;;4977564;28;20113;-69
2022/10/06 00:54:49;;;;;;;7.97;1.10;;;13.40;99.90;;;;;;4994937;28;20112;-69
2022/10/06 00:57:16;;;;;;;7.43;1.25;;;13.40;99.90;;;;;;4977190;28;20050;-69
2022/10/06 00:59:41;;;;;;;9.27;1.23;;;13.40;99.90;;;;;;4977427;28;20104;-69
2022/10/06 01:02:25;;;;;;;9.93;1.48;;;13.40;99.90;;;;;;4977062;28;20514;-69
2022/10/06 01:04:54;;;;;;;7.43;1.30;;;13.40;99.90;;;;;;4994996;28;20133;-69
2022/10/06 01:07:21;;;;;;;9.60;1.48;;;13.30;99.90;;;;;;4977218;28;20546;-69
2022/10/06 01:09:47;;;;;;;7.10;1.63;;;13.30;99.90;;;;;;4977192;28;20042;-69
2022/10/06 01:12:13;;;;;;;11.25;1.65;;;13.30;99.90;;;;;;4994629;28;20038;-69
2022/10/06 01:14:40;;;;;;;10.30;1.50;;;13.30;99.90;;;;;;4976895;28;20046;-69
2022/10/06 01:17:12;;;;;;;13.82;1.50;;;13.30;99.90;;;;;;4976579;28;20451;-69
2022/10/06 01:19:51;;;;;;;13.23;1.80;;;13.20;99.90;;;;;;4977228;28;20050;-69
2022/10/06 01:22:28;;;;;;;14.02;1.65;;;13.20;99.90;;;;;;4976846;28;20082;-69
2022/10/06 01:24:54;;;;;;;10.05;1.67;;;13.20;99.90;;;;;;4976708;28;20092;-69
2022/10/06 01:27:22;;;;;;;14.27;1.95;;;13.20;99.90;;;;;;4994048;28;20089;-69
2022/10/06 01:29:52;;;;;;;9.98;1.50;;;13.10;99.90;;;;;;4994356;28;20092;-69
2022/10/06 01:32:17;;;;;;;9.82;1.95;;;13.10;99.90;;;;;;4976594;28;20038;-69
2022/10/06 01:34:43;;;;;;;10.88;1.92;;;13.10;99.90;;;;;;4976122;28;20100;-69
2022/10/06 01:37:08;;;;;;;9.57;1.95;;;13.10;99.90;;;;;;4994200;28;20046;-69
2022/10/06 01:39:34;;;;;;;12.30;1.73;;;13.00;99.90;;;;;;4976587;28;20433;-69
2022/10/06 01:41:59;;;;;;;14.93;2.08;;;13.00;99.90;;;;;;4976724;28;20042;-69
2022/10/06 01:44:25;;;;;;;11.45;1.77;;;12.90;99.90;;;;;;4976454;28;20491;-69
2022/10/06 01:46:50;;;;;;;7.70;1.33;;;12.90;99.90;;;;;;4976634;28;20240;-69
2022/10/06 01:49:16;;;;;;;7.97;1.50;;;12.90;99.90;;;;;;4960624;28;20613;-69
2022/10/06 01:51:42;;;;;;;11.43;1.98;;;12.90;99.90;;;;;;4976466;28;20442;-69
2022/10/06 01:54:07;;;;;;;9.90;1.70;;;12.90;99.90;;;;;;4976381;28;20553;-69
2022/10/06 01:56:33;;;;;;;9.85;1.88;;;12.90;99.90;;;;;;4976504;28;20041;-69
2022/10/06 01:58:58;;;;;;;10.88;1.73;;;12.80;99.90;;;;;;4976400;28;20050;-69
2022/10/06 02:01:24;;;;;;;10.63;1.52;;;12.80;99.90;;;;;;4960524;28;20046;-69
2022/10/06 02:03:49;;;;;;;8.77;1.45;;;12.80;99.90;;;;;;4976551;28;20046;-69
2022/10/06 02:06:15;;;;;;;10.43;1.80;;;12.70;99.90;;;;;;4976102;28;20471;-69
2022/10/06 02:08:41;;;;;;;16.55;1.73;;;12.70;99.90;;;;;;4976283;28;20053;-69
2022/10/06 02:11:11;;;;;;;9.43;1.67;;;12.70;99.90;;;;;;4993632;28;20564;-69
2022/10/06 02:13:37;;;;;;;13.32;1.90;;;12.60;99.90;;;;;;4976456;28;20042;-69
2022/10/06 02:16:05;;;;;;;12.65;1.55;;;12.60;99.90;;;;;;4976138;28;20050;-69
2022/10/06 02:18:32;;;;;;;12.90;1.70;;;12.50;99.90;;;;;;4976364;28;20052;-69
2022/10/06 02:20:58;;;;;;;8.48;1.52;;;12.50;99.90;;;;;;4976141;28;20081;-69
2022/10/06 02:23:23;;;;;;;11.07;1.70;;;12.50;99.90;;;;;;4976168;28;20070;-69
2022/10/06 02:25:56;;;;;;;9.80;1.75;;;12.50;99.90;;;;;;4976046;28;20057;-69
2022/10/06 02:28:21;;;;;;;7.72;1.45;;;12.40;99.90;;;;;;4976308;28;20038;-69
2022/10/06 02:30:47;;;;;;;10.95;2.35;;;12.40;99.90;;;;;;4976329;28;20438;-69
2022/10/06 02:33:13;;;;;;;13.55;1.55;;;12.40;99.90;;;;;;4976035;28;20447;-69
2022/10/06 02:35:38;;;;;;;12.30;1.70;;;12.40;99.90;;;;;;4976077;28;20039;-69
2022/10/06 02:38:04;;;;;;;8.80;1.55;;;12.30;99.90;;;;;;4975959;28;20046;-69
2022/10/06 02:40:30;;;;;;;11.73;1.75;;;12.30;99.90;;;;;;4975976;28;20057;-69
2022/10/06 02:42:55;;;;;;;13.18;2.20;;;12.30;99.90;;;;;;4976214;28;20054;-69
2022/10/06 02:45:21;;;;;;;10.00;1.77;;;12.30;99.90;;;;;;4978163;28;20529;-69
2022/10/06 02:47:46;;;;;;;7.50;1.50;;;12.30;99.90;;;;;;4979817;28;20045;-69
2022/10/06 02:50:12;;;;;;;10.13;2.00;;;12.30;99.90;;;;;;4979603;28;20558;-69
2022/10/06 02:52:39;;;;;;;8.93;1.45;;;12.30;99.90;;;;;;4979825;28;20104;-69
2022/10/06 02:55:06;;;;;;;16.23;2.33;;;12.30;99.90;;;;;;4979481;28;20077;-69
2022/10/06 02:57:32;;;;;;;9.63;1.90;;;12.30;99.90;;;;;;4979626;28;20042;-69
2022/10/06 02:59:58;;;;;;;10.07;1.55;;;12.20;99.90;;;;;;4979368;28;20046;-69
2022/10/06 03:02:23;;;;;;;8.30;1.40;;;12.20;99.90;;;;;;4979345;28;20053;-69
2022/10/06 03:04:49;;;;;;;13.15;1.83;;;12.20;99.90;;;;;;4979230;28;20137;-69
2022/10/06 03:07:15;;;;;;;5.53;1.55;;;12.20;99.90;;;;;;4979495;28;20070;-69
2022/10/06 03:09:41;;;;;;;14.80;1.52;;;12.20;99.90;;;;;;4979195;28;20038;-69
2022/10/06 03:12:07;;;;;;;9.18;1.60;;;12.20;99.90;;;;;;4979404;28;20042;-69
2022/10/06 03:14:32;;;;;;;12.30;2.15;;;12.20;99.90;;;;;;4979392;28;20065;-69
2022/10/06 03:16:58;;;;;;;14.88;1.85;;;12.10;99.90;;;;;;4978785;28;20511;-69
2022/10/06 03:19:24;;;;;;;7.28;1.70;;;12.10;99.90;;;;;;4979330;28;20042;-69
2022/10/06 03:21:49;;;;;;;10.85;1.42;;;12.10;99.90;;;;;;4978999;28;20046;-69
2022/10/06 03:24:16;;;;;;;14.95;2.28;;;12.00;99.90;;;;;;4978918;28;20035;-69
2022/10/06 03:26:43;;;;;;;11.55;1.77;;;12.00;99.90;;;;;;4978837;28;20039;-69
2022/10/06 03:29:10;;;;;;;11.52;1.67;;;12.00;99.90;;;;;;4978848;28;20054;-69
2022/10/06 03:31:36;;;;;;;14.00;1.77;;;12.00;99.90;;;;;;4978768;28;20043;-69
2022/10/06 03:34:02;;;;;;;8.52;1.58;;;11.90;99.90;;;;;;4978750;28;20052;-69
2022/10/06 03:36:31;;;;;;;16.10;2.15;;;11.90;99.90;;;;;;4978708;28;20050;-69
2022/10/06 03:38:57;;;;;;;17.15;1.92;;;11.90;99.90;;;;;;4978921;28;20042;-69
2022/10/06 03:41:26;;;;;;;10.25;1.70;;;11.80;99.90;;;;;;4978697;28;20391;-69
2022/10/06 03:43:56;;;;;;;8.43;1.67;;;11.80;99.90;;;;;;4978892;28;20410;-69
2022/10/06 03:46:28;;;;;;;10.68;1.75;;;11.80;99.90;;;;;;4978625;28;20125;-69
2022/10/06 03:48:56;;;;;;;9.20;1.75;;;11.80;99.90;;;;;;4978553;28;20041;-69
2022/10/06 03:51:26;;;;;;;13.10;1.88;;;11.80;99.90;;;;;;4962318;28;20511;-69
2022/10/06 03:53:52;;;;;;;12.15;2.10;;;11.80;99.90;;;;;;4978428;28;20049;-69
2022/10/06 03:56:20;;;;;;;9.10;2.00;;;11.80;99.90;;;;;;4979046;28;20046;-69
2022/10/06 03:58:50;;;;;;;7.25;1.40;;;11.70;99.90;;;;;;4978566;28;20133;-69
2022/10/06 04:01:19;;;;;;;11.23;2.10;;;11.70;99.90;;;;;;4978611;28;20403;-69
2022/10/06 04:03:44;;;;;;;10.82;1.83;;;11.70;99.90;;;;;;4978498;28;20522;-69
2022/10/06 04:06:12;;;;;;;17.35;2.38;;;11.70;99.90;;;;;;4978062;28;20046;-69
2022/10/06 04:08:39;;;;;;;11.95;1.83;;;11.70;99.90;;;;;;4978205;28;20566;-69
2022/10/06 04:11:07;;;;;;;10.13;1.42;;;11.70;99.90;;;;;;4978128;28;20113;-69
2022/10/06 04:13:33;;;;;;;10.52;1.70;;;11.70;99.90;;;;;;4962141;28;20046;-69
2022/10/06 04:16:08;;;;;;;13.48;2.20;;;11.70;99.90;;;;;;4978011;28;20407;-69
2022/10/06 04:18:34;;;;;;;12.40;1.80;;;11.70;99.90;;;;;;4978059;28;20050;-69
2022/10/06 04:21:00;;;;;;;12.65;1.73;;;11.70;99.90;;;;;;4977904;28;20051;-69
2022/10/06 04:23:25;;;;;;;14.30;2.03;;;11.70;99.90;;;;;;4977891;28;20046;-69
2022/10/06 04:25:57;;;;;;;14.60;1.83;;;11.70;99.90;;;;;;4977760;28;20061;-69
2022/10/06 04:28:23;;;;;;;9.63;1.92;;;11.60;99.90;;;;;;4977783;28;20051;-69
2022/10/06 04:30:59;;;;;;;16.67;2.63;;;11.60;99.90;;;;;;4977734;28;20045;-69
2022/10/06 04:33:26;;;;;;;11.70;2.35;;;11.60;99.90;;;;;;4995404;28;20120;-69
2022/10/06 04:36:03;;;;;;;9.93;2.00;;;11.60;99.90;;;;;;4977579;28;20089;-69
2022/10/06 04:38:32;;;;;;;14.43;2.20;;;11.60;99.90;;;;;;4977530;28;20046;-69
2022/10/06 04:41:05;;;;;;;11.98;1.80;;;11.60;99.90;;;;;;4978371;28;20050;-69
2022/10/06 04:43:32;;;;;;;11.93;1.63;;;11.50;99.90;;;;;;4977512;28;20050;-69
2022/10/06 04:45:58;;;;;;;13.02;1.90;;;11.50;99.90;;;;;;4977362;28;20038;-69
2022/10/06 04:48:25;;;;;;;10.88;2.08;;;11.50;99.90;;;;;;4977614;28;20104;-69
2022/10/06 04:51:02;;;;;;;8.07;1.77;;;11.50;99.90;;;;;;4977427;28;20042;-69
2022/10/06 04:53:29;;;;;;;11.15;1.90;;;11.50;99.90;;;;;;4961578;28;20101;-69
2022/10/06 04:55:59;;;;;;;13.50;2.08;;;11.50;99.90;;;;;;4977536;28;20043;-69
2022/10/06 04:58:25;;;;;;;12.02;2.42;;;11.50;99.90;;;;;;4977140;28;20082;-69
2022/10/06 05:00:51;;;;;;;7.57;1.63;;;11.50;99.90;;;;;;4977467;28;20046;-69
2022/10/06 05:03:16;;;;;;;10.65;1.92;;;11.40;99.90;;;;;;4977129;28;20459;-69
2022/10/06 05:05:42;;;;;;;12.65;2.20;;;11.40;99.90;;;;;;4977065;28;20122;-69
2022/10/06 05:08:07;;;;;;;15.93;2.30;;;11.40;99.90;;;;;;4976366;28;20046;-69
2022/10/06 05:10:33;;;;;;;12.65;2.40;;;11.40;99.90;;;;;;4977056;28;20049;-69
2022/10/06 05:12:58;;;;;;;12.43;1.88;;;11.40;99.90;;;;;;4976983;28;20068;-69
2022/10/06 05:15:24;;;;;;;9.90;1.73;;;11.40;99.90;;;;;;4960893;28;20125;-69
2022/10/06 05:17:49;;;;;;;9.23;1.52;;;11.40;99.90;;;;;;4976989;28;20050;-69
2022/10/06 05:20:16;;;;;;;15.30;1.98;;;11.40;99.90;;;;;;4976860;28;20034;-69
2022/10/06 05:22:41;;;;;;;11.95;1.95;;;11.30;99.90;;;;;;4977110;28;20046;-69
2022/10/06 05:25:07;;;;;;;11.20;1.85;;;11.30;99.90;;;;;;4993633;28;20530;-69
2022/10/06 05:27:33;;;;;;;9.77;2.10;;;11.30;99.90;;;;;;4976649;28;20053;-69
2022/10/06 05:29:58;;;;;;;15.77;2.13;;;11.30;99.90;;;;;;4976709;28;20070;-69
2022/10/06 05:32:24;;;;;;;12.02;2.22;;;11.30;99.90;;;;;;4976659;28;20192;-69
2022/10/06 05:34:49;;;;;;;13.38;2.15;;;11.30;99.90;;;;;;4976648;28;20050;-69
2022/10/06 05:37:15;;;;;;;13.05;2.42;;;11.30;99.90;;;;;;4976817;28;20050;-69
2022/10/06 05:39:40;;;;;;;10.07;2.20;;;11.30;99.90;;;;;;4976555;28;20048;-69
2022/10/06 05:42:06;;;;;;;13.35;2.13;;;11.30;99.90;;;;;;4976801;28;20044;-69
2022/10/06 05:44:31;;;;;;;16.33;2.72;;;11.20;99.90;;;;;;4960346;28;20383;-69
2022/10/06 05:46:57;;;;;;;10.95;1.73;;;11.30;99.90;;;;;;4976384;28;20042;-69
2022/10/06 05:49:22;;;;;;;17.92;2.55;;;11.20;99.90;;;;;;4976471;28;20052;-69
2022/10/06 05:51:48;;;;;;;8.93;1.55;;;11.20;99.90;;;;;;4976475;28;20060;-69
2022/10/06 05:54:14;;;;;;;16.65;2.40;;;11.20;99.90;;;;;;4976642;28;20042;-69
2022/10/06 05:56:40;;;;;;;11.32;2.53;;;11.20;99.90;;;;;;4977098;28;20406;-69
2022/10/06 05:59:06;;;;;;;10.02;1.80;;;11.30;99.90;;;;;;4976283;28;20085;-69
2022/10/06 06:01:38;;;;;;;12.20;2.33;;;11.30;99.90;;;;;;4976589;28;20069;-69
2022/10/06 06:04:14;;;;;;;11.57;2.10;;;11.30;99.90;;;;;;4976313;28;20133;-69
2022/10/06 06:06:47;;;;;;;12.73;2.30;;;11.20;99.90;;;;;;4976194;28;20046;-69
2022/10/06 06:09:14;;;;;;;9.82;1.85;;;11.20;99.90;;;;;;4976321;28;20043;-69
2022/10/06 06:11:45;;;;;;;11.45;1.98;;;11.20;99.90;;;;;;4993896;28;20042;-69
2022/10/06 06:14:13;;;;;;;13.10;2.28;;;11.20;99.90;;;;;;4976206;28;20121;-69
2022/10/06 06:16:40;;;;;;;15.95;2.38;;;11.20;99.90;;;;;;4976023;28;20100;-69
2022/10/06 06:19:07;;;;;;;16.40;2.30;;;11.10;99.90;;;;;;4976788;28;20407;-69
2022/10/06 06:21:33;;;;;;;14.18;2.25;;;11.20;99.90;;;;;;4980105;28;20042;-69
2022/10/06 06:23:59;;;;;;;18.58;2.13;;;11.20;99.90;;;;;;4997502;28;20038;-69
2022/10/06 06:26:32;;;;;;;12.65;2.13;;;11.10;99.90;;;;;;4963852;28;20039;-69
2022/10/06 06:29:01;;;;;;;11.98;1.77;;;11.20;99.90;;;;;;4980343;28;20182;-69
2022/10/06 06:31:30;;;;;;;15.70;2.03;;;11.20;99.90;;;;;;4979934;28;20137;-69
2022/10/06 06:33:58;;;;;;;10.10;2.00;;;11.20;99.90;;;;;;4979884;28;20046;-69
2022/10/06 06:36:27;;;;;;;13.63;2.00;;;11.20;99.90;;;;;;4979740;28;20050;-69
2022/10/06 06:38:54;;;;;;;11.90;1.92;;;11.20;99.90;;;;;;4979808;28;20105;-69
2022/10/06 06:41:24;;;;;;;16.52;2.78;;;11.20;99.90;;;;;;4979767;28;20418;-69
2022/10/06 06:43:51;;;;;;;14.57;1.65;;;11.20;99.90;;;;;;4979957;28;20050;-69
2022/10/06 06:46:19;;;;;;;10.73;1.77;;;11.20;99.90;;;;;;4979531;28;20046;-69
2022/10/06 06:48:46;;;;;;;11.80;2.00;;;11.20;99.90;;;;;;4979908;28;20049;-69
2022/10/06 06:51:12;;;;;;;18.75;2.65;;;11.20;99.90;;;;;;4979578;28;20500;-69
2022/10/06 06:53:39;;;;;;;14.48;2.28;;;11.30;99.90;;;;;;4979974;28;20040;-69
2022/10/06 06:56:07;;;;;;;13.98;2.15;;;11.30;99.90;;;;;;4980054;28;20038;-69
2022/10/06 06:58:36;;;;;;;10.77;1.98;;;11.30;99.90;;;;;;4963301;28;20130;-69
2022/10/06 07:01:06;;;;;;;18.35;2.67;;;11.30;99.90;;;;;;4979388;28;20432;-69
2022/10/06 07:03:32;;;;;;;13.05;2.15;;;11.40;99.90;;;;;;4979547;28;20459;-69
2022/10/06 07:06:08;;;;;;;13.82;2.13;;;11.40;99.90;;;;;;4979265;28;20043;-69
2022/10/06 07:08:35;;;;;;;15.43;2.60;;;11.40;99.90;;;;;;4979255;28;20042;-69
2022/10/06 07:11:17;;;;;;;15.02;2.92;;;11.50;99.90;;;;;;4979202;28;20042;-69
2022/10/06 07:13:44;;;;;;;14.00;2.15;;;11.50;99.90;;;;;;4996640;28;20039;-69
2022/10/06 07:27:16;;;;;;;13.85;2.28;;;11.70;99.90;;;;;;4978931;28;20050;-69
2022/10/06 07:29:41;;;;;;;20.10;3.10;;;11.70;99.90;;;;;;4978919;28;20046;-69
2022/10/06 07:32:07;;;;;;;12.40;2.90;;;11.80;99.90;;;;;;4977838;28;20034;-69
2022/10/06 07:34:32;;;;;;;12.43;2.65;;;11.80;99.90;;;;;;4979029;28;20042;-69
2022/10/06 07:36:58;;;;;;;11.85;1.85;;;11.90;99.90;;;;;;4978989;28;20395;-69
2022/10/06 07:39:23;;;;;;;14.75;2.63;;;11.90;99.90;;;;;;4978707;28;20491;-69
2022/10/06 07:41:49;;;;;;;15.70;2.40;;;12.00;99.90;;;;;;4978732;28;20038;-69
2022/10/06 07:44:14;;;;;;;11.98;2.45;;;12.00;99.90;;;;;;4978711;28;20120;-69
2022/10/06 07:46:42;;;;;;;14.38;2.90;;;12.10;99.90;;;;;;4978428;28;20050;-69
2022/10/06 07:49:08;;;;;;;13.45;2.05;;;12.10;99.90;;;;;;4978515;28;20474;-69
2022/10/06 07:51:34;;;;;;;15.32;2.45;;;12.20;99.90;;;;;;4978815;28;20046;-69
2022/10/06 07:54:00;;;;;;;17.63;2.15;;;12.30;99.90;;;;;;4978703;28;20518;-69
2022/10/06 07:56:26;;;;;;;13.07;2.30;;;12.30;99.90;;;;;;4978477;28;20122;-69
2022/10/06 07:58:52;;;;;;;12.80;2.25;;;12.30;99.90;;;;;;4978363;28;20151;-69
2022/10/06 08:01:19;;;;;;;10.50;2.40;;;12.40;99.90;;;;;;4978341;28;20104;-69
2022/10/06 08:03:47;;;;;;;10.30;2.00;;;12.40;99.90;;;;;;4978253;28;20415;-73
2022/10/06 08:06:16;;;;;;;9.80;1.90;;;12.50;99.90;;;;;;4978438;28;20038;-69
2022/10/06 08:08:43;;;;;;;13.98;2.63;;;12.60;99.90;;;;;;4962248;28;20051;-69
2022/10/06 08:11:10;;;;;;;13.20;2.42;;;12.70;99.90;;;;;;4978185;28;20038;-69
2022/10/06 08:13:38;;;;;;;13.40;2.08;;;12.90;99.90;;;;;;4978150;28;20048;-69
2022/10/06 08:16:10;;;;;;;8.50;1.80;;;13.80;99.90;;;;;;4977989;28;20526;-69
2022/10/06 08:18:36;;;;;;;12.20;2.03;;;15.30;99.90;;;;;;4978115;28;20046;-69
2022/10/06 08:21:17;;;;;;;9.57;2.25;;;16.60;99.90;;;;;;4978180;28;20510;-69
2022/10/06 08:23:43;;;;;;;19.33;3.28;;;17.90;99.90;;;;;;4977817;28;20034;-70
2022/10/06 08:26:10;;;;;;;13.05;2.00;;;18.90;99.90;;;;;;4977786;28;20051;-70
2022/10/06 08:28:37;;;;;;;11.68;2.15;;;19.70;99.90;;;;;;4977903;28;20042;-67
2022/10/06 08:31:10;;;;;;;11.70;1.95;;;20.30;99.90;;;;;;4978040;28;20053;-67
2022/10/06 08:33:37;;;;;;;16.13;2.97;;;20.80;99.20;;;;;;4978088;28;20038;-67
2022/10/06 08:36:05;;;;;;;13.32;2.15;;;21.30;97.00;;;;;;4977935;28;20050;-67
2022/10/06 08:38:31;;;;;;;8.63;2.33;;;21.80;94.30;;;;;;4977519;28;20419;-67
2022/10/06 08:40:57;;;;;;;11.90;2.67;;;22.20;91.70;;;;;;4977794;28;20053;-67
2022/10/06 08:43:24;;;;;;;9.02;2.30;;;22.40;89.10;;;;;;4977355;28;20082;-67
2022/10/06 08:45:58;;;;;;;14.02;2.35;;;22.70;85.80;;;;;;4977407;28;20097;-67
2022/10/06 08:48:28;;;;;;;16.50;3.15;;;23.10;83.90;;;;;;4978652;28;20050;-67
2022/10/06 08:51:07;;;;;;;11.35;2.92;;;23.40;79.80;;;;;;4961296;28;20475;-67
2022/10/06 08:53:53;;;;;;;11.88;2.40;;;23.70;77.60;;;;;;4977641;28;20522;-67
2022/10/06 08:56:25;;;;;;;9.90;2.33;;;23.90;75.30;;;;;;4977203;28;20050;-67
2022/10/06 08:59:17;;;;;;;12.05;2.83;;;24.10;71.10;;;;;;4977334;28;20045;-67
2022/10/06 09:01:48;;;;;;;11.63;2.28;;;24.20;73.60;;;;;;4973811;28;20085;-67
2022/10/06 09:04:22;;;;;;;9.80;2.10;;;24.40;70.50;;;;;;4977164;28;20050;-68
2022/10/06 09:07:02;;;;;;;10.27;2.25;;;24.50;68.80;;;;;;4977071;28;20042;-68
2022/10/06 09:09:56;;;;;;;13.55;3.13;;;24.80;68.20;;;;;;4977332;28;20042;-68
2022/10/06 09:12:26;;;;;;;12.48;2.38;;;24.90;63.70;;;;;;4977047;28;20038;-68
2022/10/06 09:14:57;;;;;;;12.15;2.53;;;24.90;65.00;;;;;;4976824;28;20057;-68
2022/10/06 09:17:34;;;;;;;12.20;2.95;;;24.80;63.30;;;;;;4976810;28;20057;-67
2022/10/06 09:20:21;;;;;;;14.35;2.85;;;24.60;64.10;;;;;;4976975;28;20042;-67
2022/10/06 09:22:50;;;;;;;11.40;1.90;;;24.60;63.20;;;;;;4976933;28;20042;-67
2022/10/06 09:25:20;;;;;;;10.05;2.42;;;24.50;64.60;;;;;;4960861;28;20058;-67
2022/10/06 09:27:50;;;;;;;10.45;2.35;;;24.70;63.10;;;;;;4960924;28;20034;-67
2022/10/06 09:30:16;;;;;;;14.07;2.70;;;24.70;63.30;;;;;;4994210;28;20045;-68
2022/10/06 09:32:47;;;;;;;11.10;2.47;;;24.20;63.50;;;;;;4976715;28;20042;-68
2022/10/06 09:35:21;;;;;;;11.80;2.60;;;23.50;64.20;;;;;;4976608;28;20049;-68
2022/10/06 09:37:57;;;;;;;15.13;2.72;;;22.80;66.00;;;;;;4976562;28;20038;-68
2022/10/06 09:40:47;;;;;;;11.35;2.22;;;22.60;69.50;;;;;;4976944;28;20038;-68
2022/10/06 09:43:37;;;;;;;12.95;2.55;;;22.70;71.60;;;;;;4976823;28;20050;-67
2022/10/06 09:46:42;;;;;;;17.23;2.65;;;23.40;71.60;;;;;;4976432;28;20098;-67
2022/10/06 09:49:20;;;;;;;9.60;2.28;;;24.20;64.30;;;;;;4899251;29;20051;-67
2022/10/06 09:52:02;;;;;;;9.85;2.10;;;24.80;62.60;;;;;;4899521;29;20052;-67
2022/10/06 09:54:29;;;;;;;13.13;2.47;;;25.00;61.80;;;;;;4950562;28;20141;-67
2022/10/06 09:56:58;;;;;;;9.80;2.35;;;24.30;61.10;;;;;;4976333;28;20050;-67
2022/10/06 09:59:34;;;;;;;8.18;1.77;;;23.40;63.90;;;;;;4976383;28;20046;-67
2022/10/06 10:02:02;;;;;;;9.30;2.20;;;22.30;68.40;;;;;;4976410;28;20495;-67
2022/10/06 10:04:30;;;;;;;10.35;1.98;;;21.90;74.50;;;;;;4976320;28;20077;-67
2022/10/06 10:07:33;;;;;;;12.20;2.10;;;22.20;73.90;;;;;;4976204;28;20053;-67
2022/10/06 10:10:20;;;;;;;8.47;1.67;;;23.00;66.00;;;;;;4899404;29;20106;-67
2022/10/06 10:12:54;;;;;;;10.95;2.05;;;24.20;64.50;;;;;;4899188;29;20488;-67
2022/10/06 10:15:19;;;;;;;6.82;1.70;;;24.80;60.40;;;;;;4899066;29;20048;-67
2022/10/06 10:17:51;;;;;;;8.27;1.70;;;25.30;58.70;;;;;;4899187;29;20056;-67
2022/10/06 10:20:38;;;;;;;10.07;1.80;;;25.60;56.70;;;;;;4899186;29;20044;-67
2022/10/06 10:23:19;;;;;;;5.30;1.70;;;25.70;54.50;;;;;;4899264;29;20059;-67
2022/10/06 10:26:16;;;;;;;9.55;2.20;;;25.80;53.90;;;;;;4898853;29;20473;-67
2022/10/06 10:28:59;;;;;;;12.07;1.63;;;25.80;53.50;;;;;;4887767;29;20103;-67
2022/10/06 10:31:39;;;;;;;8.27;1.63;;;25.80;53.40;;;;;;4899017;29;20081;-67
2022/10/06 10:34:21;;;;;;;10.45;1.60;;;25.60;54.40;;;;;;4898842;29;20149;-67
2022/10/06 10:36:56;;;;;;;9.37;1.70;;;25.50;54.00;;;;;;4899096;29;20095;-67
2022/10/06 10:39:39;;;;;;;7.00;1.70;;;25.40;54.50;;;;;;4898819;29;20080;-67
2022/10/06 10:42:19;;;;;;;8.82;1.40;;;25.20;55.40;;;;;;4899081;29;20414;-67
2022/10/06 10:44:53;;;;;;;8.60;1.60;;;25.20;55.70;;;;;;4948152;28;20053;-67
2022/10/06 10:47:33;;;;;;;6.13;1.42;;;24.90;56.40;;;;;;4993590;28;20050;-67
2022/10/06 10:50:10;;;;;;;10.98;1.85;;;24.70;57.20;;;;;;4976163;28;20038;-67
2022/10/06 10:52:40;;;;;;;7.88;1.67;;;24.30;56.30;;;;;;4976168;28;20042;-67
2022/10/06 10:55:22;;;;;;;6.88;1.25;;;23.60;57.60;;;;;;4975922;28;20541;-68
2022/10/06 10:57:49;;;;;;;6.00;1.48;;;22.90;59.10;;;;;;4976078;28;20051;-68
2022/10/06 11:00:19;;;;;;;7.60;1.58;;;22.10;62.30;;;;;;4975779;28;20174;-68
2022/10/06 11:02:45;;;;;;;6.43;1.45;;;21.80;64.90;;;;;;4975805;28;20499;-68
2022/10/06 11:05:14;;;;;;;8.93;1.55;;;21.50;67.40;;;;;;4976136;28;20050;-68
2022/10/06 11:07:53;;;;;;;8.43;1.45;;;21.50;68.60;;;;;;4979292;28;20165;-68
2022/10/06 11:10:26;;;;;;;6.30;1.42;;;21.80;70.30;;;;;;4979332;28;20491;-69
2022/10/06 11:13:21;;;;;;;6.63;1.45;;;22.00;68.10;;;;;;4979222;28;20042;-68
2022/10/06 11:16:13;;;;;;;11.00;1.48;;;22.30;71.00;;;;;;4979263;28;20048;-69
2022/10/06 11:19:10;;;;;;;8.07;1.60;;;22.50;62.40;;;;;;4979425;28;20133;-69
2022/10/06 11:21:56;;;;;;;7.30;1.15;;;21.90;63.40;;;;;;4979119;28;20042;-69
2022/10/06 11:25:00;;;;;;;8.05;1.38;;;21.20;65.20;;;;;;4979039;28;20074;-69
2022/10/06 11:27:41;;;;;;;8.27;2.08;;;20.80;67.60;;;;;;4978918;28;20050;-68
2022/10/06 11:30:25;;;;;;;10.18;1.60;;;20.80;71.70;;;;;;4978935;28;20046;-68
2022/10/06 11:33:18;;;;;;;9.27;1.63;;;21.10;68.40;;;;;;4979145;28;20069;-68
2022/10/06 11:35:47;;;;;;;8.65;1.55;;;21.50;68.90;;;;;;4978827;28;20121;-68
2022/10/06 11:38:22;;;;;;;5.25;1.48;;;21.90;69.50;;;;;;4978975;28;20073;-68
2022/10/06 11:40:56;;;;;;;5.50;1.00;;;22.10;66.60;;;;;;4978995;28;20184;-69
2022/10/06 11:43:33;;;;;;;6.20;1.50;;;22.10;63.80;;;;;;4963101;28;20042;-69
2022/10/06 11:46:37;;;;;;;8.75;1.60;;;22.30;61.50;;;;;;4978600;28;20542;-69
2022/10/06 11:49:27;;;;;;;5.40;1.27;;;22.30;59.30;;;;;;4978619;28;20407;-69
2022/10/06 11:51:54;;;;;;;6.10;1.20;;;22.20;57.70;;;;;;4978525;28;20048;-69
2022/10/06 11:54:48;;;;;;;6.57;1.13;;;22.10;60.00;;;;;;4978835;28;20125;-69
2022/10/06 11:57:25;;;;;;;8.35;1.13;;;22.00;60.40;;;;;;4978385;28;20088;-69
2022/10/06 11:59:53;;;;;;;6.25;1.17;;;22.00;61.70;;;;;;4978583;28;20093;-69
2022/10/06 12:02:31;;;;;;;7.28;1.05;;;22.00;60.30;;;;;;4978310;28;20121;-69
2022/10/06 12:05:08;;;;;;;5.53;1.20;;;22.00;60.20;;;;;;4978234;28;20039;-69
2022/10/06 12:07:55;;;;;;;6.97;1.13;;;22.00;60.90;;;;;;4978137;28;20042;-69
2022/10/06 12:10:27;;;;;;;7.32;1.33;;;21.60;60.40;;;;;;4978243;28;20167;-69
2022/10/06 12:13:26;;;;;;;7.07;1.13;;;21.60;61.80;;;;;;4978159;28;20039;-69
2022/10/06 12:16:26;;;;;;;10.70;2.10;;;21.80;59.80;;;;;;4978122;28;20039;-69
2022/10/06 12:18:55;;;;;;;8.65;1.20;;;22.10;60.70;;;;;;4966563;28;20062;-69
2022/10/06 12:21:36;;;;;;;5.85;1.33;;;22.30;60.60;;;;;;4978208;28;20086;-69
2022/10/06 12:24:29;;;;;;;6.47;1.35;;;22.40;58.10;;;;;;4977904;28;20038;-68
2022/10/06 12:27:22;;;;;;;6.20;1.38;;;22.60;56.30;;;;;;4977796;28;20479;-68
2022/10/06 12:30:11;;;;;;;;;;;22.70;55.80;;;;;;4978236;28;20442;-68
2022/10/06 12:32:47;;;;;;;7.82;1.10;;;22.60;56.40;;;;;;4967378;28;19924;-68
2022/10/06 12:35:19;;;;;;;6.82;1.38;;;22.70;57.70;;;;;;4977937;28;20561;-68
2022/10/06 12:37:46;;;;;;;7.32;0.98;;;22.80;57.00;;;;;;4977611;28;20050;-68
2022/10/06 12:40:39;;;;;;;7.47;1.45;;;22.90;56.70;;;;;;4977595;28;20051;-68
2022/10/06 12:43:16;;;;;;;5.67;1.13;;;23.10;56.20;;;;;;4978144;28;20042;-68
2022/10/06 12:46:00;;;;;;;4.97;1.20;;;23.20;56.60;;;;;;4961259;28;20305;-71
2022/10/06 12:48:38;;;;;;;6.60;1.27;;;23.20;53.10;;;;;;4977463;28;20074;-68
2022/10/06 12:51:21;;;;;;;5.28;1.30;;;23.20;54.60;;;;;;4977700;28;20077;-68
2022/10/06 12:53:58;;;;;;;5.85;1.13;;;23.10;53.50;;;;;;4977411;28;20496;-69
2022/10/06 12:56:32;;;;;;;9.25;1.50;;;23.00;54.20;;;;;;4977290;28;20058;-71
2022/10/06 12:59:21;;;;;;;11.38;2.10;;;23.10;53.20;;;;;;4977226;28;20530;-70
2022/10/06 13:02:08;;;;;;;10.43;1.40;;;23.00;53.60;;;;;;4977247;28;20088;-70
2022/10/06 13:04:43;;;;;;;9.50;1.73;;;22.90;55.00;;;;;;4977096;28;20454;-70
2022/10/06 13:07:25;;;;;;;9.23;1.70;;;22.80;55.30;;;;;;4961027;28;20038;-70
2022/10/06 13:09:54;;;;;;;10.98;1.48;;;22.90;53.80;;;;;;4977134;28;20042;-70
2022/10/06 13:12:26;;;;;;;7.35;1.63;;;22.80;55.40;;;;;;4976992;28;20495;-70